Time;durP1;ratioP1;P1;durP2;ratioP2;P2;SDS_P1;SDS_P2;PMS_P1;PMS_P2;Temp;Humidity;BMP_temperature;BMP_pressure;BME280_temperature;BME280_humidity;BME280_pressure;Samples;Min_cycle;Max_cycle;Signal;HPM_P1;HPM_P2
2023/05/12 00:01:02;;;;;;;17.95;8.10;;;11.20;99.90;;;;;;5091953;28;20089;-88
2023/05/12 00:03:28;;;;;;;20.50;7.88;;;11.20;99.90;;;;;;5092225;28;20052;-88
2023/05/12 00:05:53;;;;;;;18.63;7.25;;;11.20;99.90;;;;;;5093353;28;20368;-89
2023/05/12 00:08:19;;;;;;;19.92;7.45;;;11.20;99.90;;;;;;5093217;28;20036;-88
2023/05/12 00:10:45;;;;;;;18.35;6.43;;;11.30;99.90;;;;;;5093468;28;20079;-88
2023/05/12 00:13:10;;;;;;;20.23;7.25;;;11.30;99.90;;;;;;5093396;28;20457;-88
2023/05/12 00:15:36;;;;;;;16.90;7.55;;;11.30;99.90;;;;;;5093274;28;20074;-89
2023/05/12 00:18:02;;;;;;;15.95;6.75;;;11.30;99.90;;;;;;5093994;28;20084;-89
2023/05/12 00:20:28;;;;;;;21.67;8.25;;;11.30;99.90;;;;;;5095706;28;20076;-88
2023/05/12 00:22:53;;;;;;;25.70;8.70;;;11.20;99.90;;;;;;5097126;28;20133;-88
2023/05/12 00:25:19;;;;;;;20.55;7.97;;;11.20;99.90;;;;;;5096742;28;20461;-89
2023/05/12 00:27:45;;;;;;;25.08;8.82;;;11.20;99.90;;;;;;5095652;28;20058;-88
2023/05/12 00:30:11;;;;;;;24.55;9.55;;;11.30;99.90;;;;;;5096880;28;20089;-89
2023/05/12 00:32:36;;;;;;;24.40;10.10;;;11.30;99.90;;;;;;5095440;28;20571;-89
2023/05/12 00:35:02;;;;;;;21.35;9.18;;;11.30;99.90;;;;;;5096825;28;20048;-89
2023/05/12 00:37:28;;;;;;;29.08;10.52;;;11.30;99.90;;;;;;5096834;28;20044;-89
2023/05/12 00:39:54;;;;;;;25.55;10.23;;;11.30;99.90;;;;;;5096728;28;20040;-89
2023/05/12 00:42:19;;;;;;;26.77;11.27;;;11.30;99.90;;;;;;5096809;28;20186;-88
2023/05/12 00:44:46;;;;;;;27.88;10.88;;;11.30;99.90;;;;;;5095400;28;20044;-88
2023/05/12 00:47:13;;;;;;;28.23;10.32;;;11.30;99.90;;;;;;5095335;28;20044;-88
2023/05/12 00:49:41;;;;;;;21.48;9.88;;;11.30;99.90;;;;;;5096606;28;20154;-88
2023/05/12 00:52:08;;;;;;;26.27;11.68;;;11.30;99.90;;;;;;5096564;28;20040;-88
2023/05/12 00:54:34;;;;;;;30.50;12.23;;;11.30;99.90;;;;;;5095262;28;20044;-88
2023/05/12 00:57:00;;;;;;;29.25;12.77;;;11.20;99.90;;;;;;5096385;28;20047;-87
2023/05/12 00:59:25;;;;;;;30.27;12.57;;;11.20;99.90;;;;;;5096074;28;20052;-88
2023/05/12 01:01:51;;;;;;;26.30;12.35;;;11.30;99.90;;;;;;5096332;28;20050;-88
2023/05/12 01:04:17;;;;;;;30.17;10.98;;;11.30;99.90;;;;;;5096293;28;20032;-88
2023/05/12 01:06:58;;;;;;;23.95;9.63;;;11.30;99.90;;;;;;5096037;28;20051;-87
2023/05/12 01:09:24;;;;;;;26.98;11.10;;;11.30;99.90;;;;;;5094842;28;20076;-88
2023/05/12 01:11:50;;;;;;;27.65;11.25;;;11.20;99.90;;;;;;5096060;28;20141;-88
2023/05/12 01:14:16;;;;;;;21.98;10.30;;;11.30;99.90;;;;;;5096161;28;20051;-88
2023/05/12 01:16:52;;;;;;;25.98;10.00;;;11.30;99.90;;;;;;5095934;28;20044;-88
2023/05/12 01:19:44;;;;;;;25.65;9.73;;;11.30;99.90;;;;;;5096065;28;20049;-88
2023/05/12 01:22:11;;;;;;;27.75;10.57;;;11.30;99.90;;;;;;5095911;28;20505;-88
2023/05/12 01:25:00;;;;;;;23.40;9.15;;;11.30;99.90;;;;;;5094506;28;20054;-88
2023/05/12 01:27:29;;;;;;;24.95;10.23;;;11.40;99.90;;;;;;5095941;28;20113;-88
2023/05/12 01:29:59;;;;;;;22.48;10.52;;;11.40;99.90;;;;;;5095012;28;20040;-88
2023/05/12 01:32:25;;;;;;;26.05;11.55;;;11.40;99.90;;;;;;5095713;28;20043;-88
2023/05/12 01:34:51;;;;;;;27.52;10.85;;;11.40;99.90;;;;;;5095471;28;20048;-88
2023/05/12 01:37:17;;;;;;;25.90;11.90;;;11.40;99.90;;;;;;5095390;28;20040;-88
2023/05/12 01:39:42;;;;;;;37.35;12.88;;;11.40;99.90;;;;;;5095357;28;20093;-88
2023/05/12 01:42:08;;;;;;;31.50;11.60;;;11.40;99.90;;;;;;5095507;28;20040;-88
2023/05/12 01:44:34;;;;;;;24.58;10.05;;;11.40;99.90;;;;;;5095372;28;20040;-87
2023/05/12 01:47:00;;;;;;;27.23;12.05;;;11.40;99.90;;;;;;5095377;28;20541;-88
2023/05/12 01:49:26;;;;;;;29.83;10.82;;;11.50;99.90;;;;;;5093920;28;20048;-88
2023/05/12 01:51:52;;;;;;;27.55;12.15;;;11.40;99.90;;;;;;5095364;28;20048;-88
2023/05/12 01:54:18;;;;;;;31.25;12.82;;;11.40;99.90;;;;;;5095284;28;20105;-88
2023/05/12 01:56:44;;;;;;;34.38;14.63;;;11.50;99.90;;;;;;5095236;28;20036;-88
2023/05/12 01:59:10;;;;;;;31.55;13.63;;;11.40;99.90;;;;;;5095243;28;20058;-88
2023/05/12 02:01:36;;;;;;;36.40;13.40;;;11.40;99.90;;;;;;5095013;28;20548;-88
2023/05/12 02:04:03;;;;;;;35.83;14.18;;;11.30;99.90;;;;;;5093647;28;20040;-88
2023/05/12 02:06:30;;;;;;;34.00;13.82;;;11.40;99.90;;;;;;5095023;28;20043;-88
2023/05/12 02:08:56;;;;;;;41.70;17.42;;;11.40;99.90;;;;;;5094945;28;20039;-88
2023/05/12 02:11:22;;;;;;;36.60;17.20;;;11.40;99.90;;;;;;5094949;28;20127;-88
2023/05/12 02:13:47;;;;;;;43.13;16.10;;;11.30;99.90;;;;;;5094970;28;20165;-88
2023/05/12 02:16:13;;;;;;;41.53;15.10;;;11.40;99.90;;;;;;5094883;28;20055;-88
2023/05/12 02:18:39;;;;;;;42.10;16.52;;;11.40;99.90;;;;;;5093357;28;20040;-88
2023/05/12 02:21:05;;;;;;;42.03;16.08;;;11.40;99.90;;;;;;5094732;28;20036;-88
2023/05/12 02:23:31;;;;;;;37.65;16.42;;;11.50;99.90;;;;;;5093348;28;20040;-88
2023/05/12 02:25:56;;;;;;;51.00;18.65;;;11.50;99.90;;;;;;5094298;28;20055;-88
2023/05/12 02:28:22;;;;;;;49.35;18.88;;;11.40;99.90;;;;;;5094710;28;20044;-88
2023/05/12 02:30:49;;;;;;;47.97;17.55;;;11.40;99.90;;;;;;5094634;28;20044;-89
2023/05/12 02:33:17;;;;;;;48.70;17.92;;;11.40;99.90;;;;;;5094555;28;20036;-88
2023/05/12 02:35:43;;;;;;;43.00;18.83;;;11.50;99.90;;;;;;5094385;28;20044;-89
2023/05/12 02:38:09;;;;;;;53.88;21.25;;;11.50;99.90;;;;;;5094354;28;20391;-88
2023/05/12 02:40:35;;;;;;;48.47;20.20;;;11.50;99.90;;;;;;5094440;28;20062;-88
2023/05/12 02:43:01;;;;;;;55.95;21.63;;;11.40;99.90;;;;;;5093909;28;20414;-88
2023/05/12 02:45:27;;;;;;;54.95;22.63;;;11.40;99.90;;;;;;5094244;28;20066;-89
2023/05/12 02:47:52;;;;;;;58.08;21.63;;;11.50;99.90;;;;;;5092893;28;20101;-89
2023/05/12 02:50:20;;;;;;;59.85;23.83;;;11.40;99.90;;;;;;5094580;28;20032;-88
2023/05/12 02:52:49;;;;;;;61.55;23.88;;;11.50;99.90;;;;;;5094211;28;20048;-88
2023/05/12 02:55:15;;;;;;;52.97;21.55;;;11.50;99.90;;;;;;5094970;28;20036;-89
2023/05/12 02:57:42;;;;;;;57.38;24.45;;;11.50;99.90;;;;;;5094074;28;20428;-88
2023/05/12 03:00:08;;;;;;;61.05;23.55;;;11.60;99.90;;;;;;5094089;28;20123;-88
2023/05/12 03:02:35;;;;;;;62.65;23.58;;;11.60;99.90;;;;;;5092919;28;20044;-88
2023/05/12 03:05:02;;;;;;;61.03;23.02;;;11.60;99.90;;;;;;5094063;28;20096;-88
2023/05/12 03:07:28;;;;;;;63.17;26.02;;;11.60;99.90;;;;;;5093906;28;20090;-88
2023/05/12 03:09:53;;;;;;;68.72;27.67;;;11.60;99.90;;;;;;5092996;28;20079;-89
2023/05/12 03:12:19;;;;;;;72.93;28.20;;;11.70;99.90;;;;;;5092972;28;20043;-88
2023/05/12 03:14:45;;;;;;;64.93;24.83;;;11.70;99.90;;;;;;5094117;28;20471;-88
2023/05/12 03:17:11;;;;;;;62.90;24.73;;;11.60;99.90;;;;;;5092839;28;20039;-87
2023/05/12 03:19:36;;;;;;;71.72;26.80;;;11.60;99.90;;;;;;5093910;28;20483;-88
2023/05/12 03:22:02;;;;;;;66.75;27.60;;;11.60;99.90;;;;;;5093947;28;20044;-89
2023/05/12 03:24:31;;;;;;;70.75;27.42;;;11.60;99.90;;;;;;5093822;28;20070;-88
2023/05/12 03:26:56;;;;;;;74.45;27.65;;;11.60;99.90;;;;;;5093568;28;20052;-88
2023/05/12 03:29:23;;;;;;;71.32;26.17;;;11.60;99.90;;;;;;5092763;28;20040;-89
2023/05/12 03:31:49;;;;;;;74.55;27.30;;;11.50;99.90;;;;;;5092492;28;20048;-89
2023/05/12 03:34:14;;;;;;;69.95;26.55;;;11.40;99.90;;;;;;5092213;28;20489;-89
2023/05/12 03:36:40;;;;;;;78.10;30.33;;;11.60;99.90;;;;;;5093596;28;20048;-89
2023/05/12 03:39:08;;;;;;;76.18;27.55;;;11.50;99.90;;;;;;5092475;28;20385;-88
2023/05/12 03:41:34;;;;;;;66.53;24.60;;;11.40;99.90;;;;;;5093232;28;20380;-89
2023/05/12 03:44:00;;;;;;;83.97;29.85;;;11.50;99.90;;;;;;5093581;28;20044;-88
2023/05/12 03:46:26;;;;;;;75.55;26.40;;;11.40;99.90;;;;;;5093404;28;20040;-88
2023/05/12 03:48:52;;;;;;;87.35;29.65;;;11.40;99.90;;;;;;5091990;28;20050;-88
2023/05/12 03:51:18;;;;;;;84.88;29.77;;;11.40;99.90;;;;;;5093294;28;20063;-89
2023/05/12 03:53:46;;;;;;;80.45;29.33;;;11.50;99.90;;;;;;5095262;28;20040;-89
2023/05/12 03:56:12;;;;;;;80.53;28.92;;;11.50;99.90;;;;;;5097247;28;20079;-88
2023/05/12 03:58:38;;;;;;;83.97;30.13;;;11.40;99.90;;;;;;5097530;28;20388;-88
2023/05/12 04:01:03;;;;;;;83.82;30.70;;;11.50;99.90;;;;;;5097405;28;20376;-88
2023/05/12 04:03:29;;;;;;;85.50;31.65;;;11.50;99.90;;;;;;5097427;28;20497;-89
2023/05/12 04:05:59;;;;;;;74.60;28.55;;;11.50;99.90;;;;;;5097323;28;20048;-89
2023/05/12 04:08:25;;;;;;;85.18;32.42;;;11.60;99.90;;;;;;5097112;28;20428;-88
2023/05/12 04:10:54;;;;;;;87.97;30.95;;;11.40;99.90;;;;;;5095958;28;20040;-88
2023/05/12 04:13:20;;;;;;;88.47;32.67;;;11.50;99.90;;;;;;5095985;28;20044;-88
2023/05/12 04:15:46;;;;;;;82.68;31.30;;;11.50;99.90;;;;;;5095652;28;20070;-88
2023/05/12 04:18:12;;;;;;;82.45;32.63;;;11.50;99.90;;;;;;5095538;28;20131;-88
2023/05/12 04:20:38;;;;;;;82.95;30.75;;;11.50;99.90;;;;;;5095609;28;20044;-88
2023/05/12 04:23:03;;;;;;;90.80;31.52;;;11.60;99.90;;;;;;5097011;28;20511;-89
2023/05/12 04:25:29;;;;;;;82.60;30.98;;;11.60;99.90;;;;;;5096413;28;20113;-88
2023/05/12 04:27:55;;;;;;;88.30;32.90;;;11.50;99.90;;;;;;5096875;28;20101;-88
2023/05/12 04:30:20;;;;;;;88.93;33.25;;;11.60;99.90;;;;;;5095318;28;20040;-88
2023/05/12 04:32:47;;;;;;;90.90;33.45;;;11.50;99.90;;;;;;5096846;28;20055;-88
2023/05/12 04:35:13;;;;;;;82.25;33.70;;;11.50;99.90;;;;;;5096501;28;20391;-88
2023/05/12 04:37:39;;;;;;;89.75;34.03;;;11.70;99.90;;;;;;5095572;28;20559;-88
2023/05/12 04:40:06;;;;;;;89.70;32.95;;;11.60;99.90;;;;;;5096392;28;20388;-88
2023/05/12 04:42:32;;;;;;;82.32;33.80;;;11.70;99.90;;;;;;5096685;28;20048;-88
2023/05/12 04:44:58;;;;;;;97.13;34.17;;;11.70;99.90;;;;;;5095368;28;20040;-87
2023/05/12 04:47:23;;;;;;;85.93;32.60;;;11.70;99.90;;;;;;5095043;28;20048;-88
2023/05/12 04:49:49;;;;;;;86.70;36.72;;;11.70;99.90;;;;;;5095330;28;20044;-88
2023/05/12 04:52:15;;;;;;;86.75;33.22;;;11.90;99.90;;;;;;5094932;28;20411;-88
2023/05/12 04:54:40;;;;;;;86.50;33.83;;;11.90;99.90;;;;;;5096117;28;20047;-88
2023/05/12 04:57:07;;;;;;;85.90;34.10;;;11.90;99.90;;;;;;5096121;28;20063;-88
2023/05/12 04:59:32;;;;;;;83.72;33.05;;;11.90;99.90;;;;;;5094816;28;20056;-88
2023/05/12 05:01:58;;;;;;;85.07;34.25;;;12.00;99.90;;;;;;5096104;28;20059;-88
2023/05/12 05:04:24;;;;;;;89.93;36.67;;;12.00;99.90;;;;;;5095226;28;20052;-88
2023/05/12 05:06:50;;;;;;;81.60;34.13;;;12.10;99.90;;;;;;5095870;28;20039;-88
2023/05/12 05:09:15;;;;;;;80.15;35.30;;;12.10;99.90;;;;;;5094621;28;20052;-88
2023/05/12 05:11:41;;;;;;;82.22;35.33;;;12.10;99.90;;;;;;5094654;28;20075;-88
2023/05/12 05:14:07;;;;;;;90.10;36.17;;;12.20;99.90;;;;;;5094576;28;20119;-88
2023/05/12 05:16:33;;;;;;;83.82;35.95;;;12.30;99.90;;;;;;5096065;28;20109;-88
2023/05/12 05:18:58;;;;;;;76.45;33.05;;;12.20;99.90;;;;;;5095830;28;20040;-88
2023/05/12 05:21:24;;;;;;;81.70;36.08;;;12.40;99.90;;;;;;5094875;28;20104;-88
2023/05/12 05:23:50;;;;;;;84.80;36.38;;;12.50;99.90;;;;;;5095580;28;20051;-88
2023/05/12 05:26:15;;;;;;;75.70;35.97;;;12.40;99.90;;;;;;5095361;28;20058;-88
2023/05/12 05:28:42;;;;;;;78.55;34.47;;;12.40;99.90;;;;;;5095801;28;20215;-88
2023/05/12 05:31:12;;;;;;;83.88;36.92;;;12.60;99.90;;;;;;5095532;28;20127;-88
2023/05/12 05:33:37;;;;;;;76.70;36.42;;;12.70;99.90;;;;;;5094279;28;20052;-88
2023/05/12 05:36:03;;;;;;;72.35;34.97;;;12.80;99.90;;;;;;5094113;28;20044;-89
2023/05/12 05:38:29;;;;;;;77.30;34.92;;;13.00;99.90;;;;;;5095335;28;20044;-88
2023/05/12 05:40:55;;;;;;;68.57;32.70;;;13.20;99.90;;;;;;5094087;28;20055;-88
2023/05/12 05:43:20;;;;;;;64.45;32.05;;;13.30;99.90;;;;;;5095288;28;20040;-89
2023/05/12 05:45:48;;;;;;;61.10;31.52;;;13.20;99.90;;;;;;5094229;28;20048;-89
2023/05/12 05:48:14;;;;;;;64.65;31.95;;;13.30;99.90;;;;;;5095419;28;20048;-89
2023/05/12 05:50:39;;;;;;;56.58;29.77;;;13.30;99.90;;;;;;5095305;28;20036;-89
2023/05/12 05:53:05;;;;;;;62.55;32.70;;;13.10;99.90;;;;;;5095338;28;20392;-89
2023/05/12 05:55:31;;;;;;;57.83;31.05;;;13.20;99.90;;;;;;5093952;28;20480;-89
2023/05/12 05:57:57;;;;;;;58.38;31.33;;;13.10;99.90;;;;;;5093816;28;20044;-88
2023/05/12 06:00:22;;;;;;;59.15;29.35;;;13.00;99.90;;;;;;5093676;28;20056;-88
2023/05/12 06:02:48;;;;;;;61.25;29.75;;;13.00;99.90;;;;;;5095115;28;20055;-89
2023/05/12 06:05:13;;;;;;;58.40;31.17;;;13.00;99.90;;;;;;5094797;28;20044;-88
2023/05/12 06:07:39;;;;;;;55.45;28.95;;;12.80;99.90;;;;;;5093361;28;20408;-89
2023/05/12 06:10:06;;;;;;;58.10;31.13;;;12.90;99.90;;;;;;5093513;28;20123;-88
2023/05/12 06:12:31;;;;;;;55.75;31.67;;;12.90;99.90;;;;;;5094305;28;20056;-88
2023/05/12 06:14:57;;;;;;;53.95;32.22;;;13.00;99.90;;;;;;5093394;28;20054;-88
2023/05/12 06:17:23;;;;;;;61.13;34.25;;;12.90;99.90;;;;;;5093776;28;20055;-88
2023/05/12 06:19:49;;;;;;;61.90;34.70;;;12.90;99.90;;;;;;5093272;28;20044;-88
2023/05/12 06:22:15;;;;;;;56.08;34.25;;;12.90;99.90;;;;;;5093194;28;20044;-88
2023/05/12 06:24:40;;;;;;;66.03;37.08;;;12.80;99.90;;;;;;5093006;28;20044;-88
2023/05/12 06:27:07;;;;;;;64.05;38.40;;;12.80;99.90;;;;;;5093019;28;20153;-88
2023/05/12 06:29:32;;;;;;;58.00;38.13;;;12.90;99.90;;;;;;5094657;28;20044;-88
2023/05/12 06:31:58;;;;;;;59.58;36.00;;;12.80;99.90;;;;;;5093014;28;20059;-89
2023/05/12 06:34:24;;;;;;;59.80;37.15;;;12.90;99.90;;;;;;5093139;28;20556;-89
2023/05/12 06:36:50;;;;;;;65.28;36.45;;;12.90;99.90;;;;;;5094193;28;20051;-88
2023/05/12 06:39:16;;;;;;;67.80;38.30;;;12.90;99.90;;;;;;5094437;28;20372;-88
2023/05/12 06:41:41;;;;;;;67.07;38.78;;;12.90;99.90;;;;;;5094467;28;20044;-86
2023/05/12 06:44:11;;;;;;;70.10;37.20;;;12.90;99.90;;;;;;5093105;28;20388;-88
2023/05/12 06:46:38;;;;;;;67.57;36.00;;;12.90;99.90;;;;;;5095808;28;20135;-86
2023/05/12 06:49:04;;;;;;;68.72;37.55;;;13.00;99.90;;;;;;5095165;28;20040;-86
2023/05/12 06:51:30;;;;;;;66.60;38.03;;;13.00;99.90;;;;;;5088554;28;20385;-86
2023/05/12 06:53:55;;;;;;;74.45;37.33;;;12.90;99.90;;;;;;5083008;28;20051;-85
2023/05/12 06:56:22;;;;;;;65.95;37.95;;;13.00;99.90;;;;;;5072891;28;20045;-85
2023/05/12 06:58:48;;;;;;;68.45;38.53;;;13.10;99.90;;;;;;5075308;28;20044;-88
2023/05/12 07:01:15;;;;;;;65.55;38.35;;;13.10;99.90;;;;;;5073553;28;20048;-86
2023/05/12 07:03:41;;;;;;;64.50;38.00;;;13.10;99.90;;;;;;5073268;28;20044;-86
2023/05/12 07:06:06;;;;;;;66.25;39.20;;;13.10;99.90;;;;;;5090106;28;20054;-87
2023/05/12 07:08:32;;;;;;;62.97;36.95;;;13.10;99.90;;;;;;5092577;28;20094;-87
2023/05/12 07:11:01;;;;;;;65.10;37.78;;;13.00;99.90;;;;;;5093821;28;20047;-87
2023/05/12 07:13:26;;;;;;;66.38;36.58;;;13.10;99.90;;;;;;5093663;28;20040;-87
2023/05/12 07:15:52;;;;;;;61.00;36.60;;;13.10;99.90;;;;;;5093537;28;20055;-88
2023/05/12 07:18:18;;;;;;;64.22;36.78;;;13.00;99.90;;;;;;5093306;28;20051;-88
2023/05/12 07:20:45;;;;;;;64.75;37.92;;;13.20;99.90;;;;;;5092481;28;20113;-89
2023/05/12 07:23:11;;;;;;;70.03;37.95;;;13.20;99.90;;;;;;5093485;28;20052;-88
2023/05/12 07:25:38;;;;;;;61.40;38.63;;;13.20;99.90;;;;;;5093684;28;20060;-86
2023/05/12 07:28:04;;;;;;;64.15;37.75;;;13.30;99.90;;;;;;5093098;28;20040;-88
2023/05/12 07:30:30;;;;;;;58.08;36.45;;;13.20;99.90;;;;;;5093407;28;20125;-84
2023/05/12 07:32:56;;;;;;;67.93;38.30;;;13.30;99.90;;;;;;5093165;28;20123;-88
2023/05/12 07:35:22;;;;;;;58.97;37.15;;;13.40;99.90;;;;;;5093556;28;20126;-86
2023/05/12 07:37:48;;;;;;;67.90;39.70;;;13.50;99.90;;;;;;5093310;28;20466;-86
2023/05/12 07:40:13;;;;;;;60.85;38.40;;;13.60;99.90;;;;;;5093504;28;20044;-88
2023/05/12 07:42:39;;;;;;;63.28;38.25;;;13.60;99.90;;;;;;5093254;28;20044;-86
2023/05/12 07:45:05;;;;;;;64.82;37.58;;;13.70;99.90;;;;;;5092119;28;20441;-87
2023/05/12 07:47:31;;;;;;;66.72;38.60;;;13.70;99.90;;;;;;5093341;28;20048;-86
2023/05/12 07:49:57;;;;;;;61.20;37.33;;;13.70;99.90;;;;;;5093329;28;20099;-86
2023/05/12 07:52:23;;;;;;;64.65;39.53;;;13.90;99.90;;;;;;5091763;28;20048;-86
2023/05/12 07:54:48;;;;;;;61.75;36.67;;;13.90;99.90;;;;;;5092952;28;20040;-86
2023/05/12 07:57:14;;;;;;;57.30;38.08;;;13.90;99.90;;;;;;5093119;28;20131;-86
2023/05/12 07:59:40;;;;;;;57.88;38.33;;;13.80;99.90;;;;;;5093022;28;20422;-85
2023/05/12 08:02:06;;;;;;;60.67;37.83;;;13.90;99.90;;;;;;5091913;28;20055;-86
2023/05/12 08:04:31;;;;;;;58.30;38.17;;;13.90;99.90;;;;;;5091862;28;20376;-85
2023/05/12 08:06:57;;;;;;;58.10;36.30;;;13.90;99.90;;;;;;5093035;28;20044;-86
2023/05/12 08:09:22;;;;;;;54.92;36.90;;;13.90;99.90;;;;;;5091706;28;20047;-87
2023/05/12 08:11:49;;;;;;;59.58;38.22;;;13.90;99.90;;;;;;5092957;28;20484;-87
2023/05/12 08:14:14;;;;;;;55.40;37.22;;;13.90;99.90;;;;;;5093074;28;20028;-87
2023/05/12 08:16:41;;;;;;;58.20;37.83;;;13.80;99.90;;;;;;5091503;28;20392;-87
2023/05/12 08:19:07;;;;;;;60.45;38.20;;;13.90;99.90;;;;;;5092779;28;20537;-88
2023/05/12 08:21:33;;;;;;;57.25;36.97;;;13.90;99.90;;;;;;5091675;28;20056;-88
2023/05/12 08:23:58;;;;;;;56.05;36.92;;;13.80;99.90;;;;;;5091612;28;20043;-89
2023/05/12 08:26:24;;;;;;;55.03;37.75;;;14.00;99.90;;;;;;5091157;28;20059;-88
2023/05/12 08:28:49;;;;;;;60.65;37.35;;;13.80;99.90;;;;;;5092943;28;20048;-88
2023/05/12 08:31:15;;;;;;;53.42;35.17;;;14.00;99.90;;;;;;5091368;28;20036;-88
2023/05/12 08:33:41;;;;;;;57.92;38.80;;;14.00;99.90;;;;;;5093010;28;20036;-88
2023/05/12 08:36:07;;;;;;;53.92;36.78;;;14.10;99.90;;;;;;5092908;28;20486;-88
2023/05/12 08:38:32;;;;;;;54.63;36.65;;;14.10;99.90;;;;;;5091789;28;20070;-89
2023/05/12 08:41:05;;;;;;;59.10;37.65;;;14.10;99.90;;;;;;5095118;28;20085;-82
2023/05/12 08:43:40;;;;;;;54.10;36.85;;;14.30;99.90;;;;;;5095164;28;20048;-88
2023/05/12 08:46:06;;;;;;;56.90;36.95;;;14.50;99.90;;;;;;5096549;28;20051;-85
2023/05/12 08:48:34;;;;;;;55.53;37.80;;;14.40;99.90;;;;;;5096524;28;20067;-88
2023/05/12 08:51:01;;;;;;;55.55;35.72;;;14.60;99.90;;;;;;5095071;28;20048;-87
2023/05/12 08:53:28;;;;;;;55.25;36.55;;;14.70;99.90;;;;;;5096227;28;20055;-88
2023/05/12 08:56:01;;;;;;;58.22;37.47;;;14.90;99.90;;;;;;5095978;28;20050;-89
2023/05/12 08:58:28;;;;;;;58.53;38.50;;;14.90;99.90;;;;;;5094992;28;20506;-83
2023/05/12 09:00:54;;;;;;;55.90;37.63;;;15.00;99.90;;;;;;5095935;28;20087;-87
2023/05/12 09:03:22;;;;;;;55.75;36.92;;;15.20;99.90;;;;;;5094806;28;20059;-87
2023/05/12 09:05:47;;;;;;;58.67;36.22;;;15.30;99.90;;;;;;5095690;28;20086;-87
2023/05/12 09:08:13;;;;;;;48.95;35.28;;;15.60;99.90;;;;;;5096126;28;20067;-88
2023/05/12 09:10:39;;;;;;;50.95;33.85;;;15.60;99.90;;;;;;5095903;28;20058;-88
2023/05/12 09:13:39;;;;;;;46.78;34.28;;;15.80;99.90;;;;;;5094411;28;20059;-87
2023/05/12 09:16:09;;;;;;;47.85;34.70;;;16.10;99.90;;;;;;5095830;28;20101;-88
2023/05/12 09:18:48;;;;;;;49.45;33.22;;;16.00;99.90;;;;;;5095612;28;20410;-88
2023/05/12 09:21:14;;;;;;;48.58;32.25;;;16.20;99.90;;;;;;5095552;28;20480;-88
2023/05/12 09:23:50;;;;;;;44.50;32.17;;;16.40;99.90;;;;;;5094284;28;20139;-88
2023/05/12 09:26:16;;;;;;;43.60;30.42;;;16.70;99.90;;;;;;5095346;28;20052;-88
2023/05/12 09:28:42;;;;;;;42.40;32.08;;;16.80;99.90;;;;;;5095398;28;20087;-87
2023/05/12 09:31:19;;;;;;;46.30;30.88;;;17.10;99.90;;;;;;5094193;28;20044;-87
2023/05/12 09:33:45;;;;;;;44.55;29.08;;;17.20;99.90;;;;;;5094306;28;20446;-87
2023/05/12 09:36:15;;;;;;;45.00;30.40;;;17.10;99.90;;;;;;5095515;28;20040;-86
2023/05/12 09:38:41;;;;;;;42.03;29.48;;;17.60;99.90;;;;;;5095366;28;20059;-87
2023/05/12 09:41:06;;;;;;;41.50;29.17;;;17.50;99.90;;;;;;5095461;28;20039;-86
2023/05/12 09:43:32;;;;;;;36.55;27.40;;;17.80;99.90;;;;;;5095068;28;20392;-86
2023/05/12 09:46:04;;;;;;;36.55;28.35;;;17.70;99.90;;;;;;5094981;28;20040;-87
2023/05/12 09:48:31;;;;;;;;;;;17.70;99.90;;;;;;5095654;28;20036;-86
2023/05/12 09:50:57;;;;;;;31.95;24.63;;;17.90;99.90;;;;;;5094829;28;19920;-86
2023/05/12 09:53:23;;;;;;;32.83;26.50;;;17.70;99.90;;;;;;5095186;28;20063;-87
2023/05/12 09:55:49;;;;;;;31.63;25.73;;;17.70;99.90;;;;;;5093998;28;20101;-87
2023/05/12 09:58:17;;;;;;;30.23;24.15;;;17.70;99.90;;;;;;5095007;28;20032;-87
2023/05/12 10:00:43;;;;;;;31.60;24.67;;;18.00;99.90;;;;;;5094782;28;20420;-87
2023/05/12 10:03:12;;;;;;;29.92;24.33;;;17.90;99.90;;;;;;5093533;28;20093;-87
2023/05/12 10:05:50;;;;;;;30.30;24.35;;;18.20;99.90;;;;;;5093365;28;20089;-86
2023/05/12 10:08:42;;;;;;;32.42;24.08;;;18.20;99.90;;;;;;5094765;28;20044;-87
2023/05/12 10:11:09;;;;;;;30.80;23.17;;;18.40;99.90;;;;;;5095035;28;20040;-87
2023/05/12 10:13:35;;;;;;;27.30;22.20;;;18.20;99.90;;;;;;5093375;28;20059;-88
2023/05/12 10:16:01;;;;;;;29.88;22.27;;;18.30;99.90;;;;;;5094906;28;20043;-88
2023/05/12 10:18:27;;;;;;;26.83;22.90;;;18.10;99.90;;;;;;5094787;28;20044;-88
2023/05/12 10:20:55;;;;;;;24.15;21.13;;;18.30;99.90;;;;;;5093358;28;20122;-88
2023/05/12 10:23:22;;;;;;;28.27;22.42;;;18.20;99.90;;;;;;5094825;28;20115;-88
2023/05/12 10:25:48;;;;;;;27.42;21.02;;;18.50;99.90;;;;;;5094222;28;20087;-89
2023/05/12 10:28:15;;;;;;;28.33;21.00;;;18.70;99.90;;;;;;5094719;28;20146;-87
2023/05/12 10:30:42;;;;;;;24.08;21.02;;;18.70;99.90;;;;;;5094612;28;20042;-88
2023/05/12 10:33:10;;;;;;;26.23;20.73;;;18.80;99.90;;;;;;5094700;28;20044;-88
2023/05/12 10:35:38;;;;;;;26.30;20.85;;;19.10;99.90;;;;;;5094680;28;20032;-88
2023/05/12 10:38:13;;;;;;;22.13;19.73;;;19.00;99.90;;;;;;5092989;28;20056;-88
2023/05/12 10:41:02;;;;;;;23.85;18.45;;;19.10;99.90;;;;;;5094511;28;20051;-88
2023/05/12 10:43:47;;;;;;;23.58;18.88;;;19.10;99.90;;;;;;5094571;28;20119;-87
2023/05/12 10:46:16;;;;;;;22.42;18.95;;;19.30;99.90;;;;;;5094150;28;20411;-87
2023/05/12 10:48:55;;;;;;;22.27;18.77;;;19.20;99.90;;;;;;5094372;28;20051;-88
2023/05/12 10:51:23;;;;;;;23.80;18.35;;;19.50;99.90;;;;;;5094461;28;20422;-87
2023/05/12 10:53:57;;;;;;;25.88;20.23;;;19.20;99.90;;;;;;5093071;28;20516;-87
2023/05/12 10:56:28;;;;;;;21.35;19.10;;;19.40;99.90;;;;;;5094377;28;20126;-87
2023/05/12 10:59:07;;;;;;;23.55;18.05;;;19.20;99.90;;;;;;5093896;28;20425;-88
2023/05/12 11:01:33;;;;;;;24.38;18.30;;;19.10;99.90;;;;;;5093800;28;20475;-87
2023/05/12 11:04:21;;;;;;;20.55;17.80;;;19.30;99.90;;;;;;5093358;28;20483;-86
2023/05/12 11:06:59;;;;;;;22.17;18.60;;;19.00;99.90;;;;;;5094011;28;20044;-85
2023/05/12 11:09:25;;;;;;;21.10;18.23;;;18.70;99.90;;;;;;5094087;28;20075;-87
2023/05/12 11:11:51;;;;;;;23.42;18.65;;;18.80;99.90;;;;;;5093900;28;20193;-87
2023/05/12 11:14:17;;;;;;;23.58;16.63;;;18.70;99.90;;;;;;5092715;28;20068;-86
2023/05/12 11:16:43;;;;;;;24.90;18.00;;;19.00;99.90;;;;;;5092851;28;20396;-86
2023/05/12 11:19:10;;;;;;;20.40;17.92;;;18.90;99.90;;;;;;5093850;28;20044;-86
2023/05/12 11:21:36;;;;;;;22.67;18.73;;;19.00;99.90;;;;;;5093870;28;20040;-87
2023/05/12 11:24:02;;;;;;;20.70;17.30;;;19.30;99.90;;;;;;5093505;28;20040;-86
2023/05/12 11:26:29;;;;;;;21.83;18.48;;;19.50;99.90;;;;;;5092494;28;20075;-86
2023/05/12 11:28:58;;;;;;;21.27;17.55;;;19.40;99.90;;;;;;5093834;28;20048;-86
2023/05/12 11:31:24;;;;;;;21.73;17.27;;;19.30;99.90;;;;;;5093652;28;20051;-86
2023/05/12 11:34:00;;;;;;;20.60;16.95;;;19.10;99.90;;;;;;5093577;28;20048;-85
2023/05/12 11:36:26;;;;;;;21.70;16.50;;;18.60;99.90;;;;;;5093453;28;20044;-86
2023/05/12 11:38:52;;;;;;;27.83;18.40;;;18.50;99.90;;;;;;5093439;28;20047;-86
2023/05/12 11:41:22;;;;;;;20.35;16.10;;;18.80;99.90;;;;;;5093644;28;20439;-86
2023/05/12 11:43:48;;;;;;;21.30;16.33;;;19.00;99.90;;;;;;5093694;28;20079;-85
2023/05/12 11:46:26;;;;;;;21.38;15.85;;;18.60;99.90;;;;;;5093538;28;20090;-85
2023/05/12 11:48:56;;;;;;;20.85;15.07;;;19.20;99.90;;;;;;5093345;28;20408;-85
2023/05/12 11:51:22;;;;;;;18.50;15.05;;;18.80;99.90;;;;;;5093325;28;20062;-86
2023/05/12 11:53:47;;;;;;;21.45;14.75;;;18.60;99.90;;;;;;5092056;28;20468;-87
2023/05/12 11:56:21;;;;;;;24.02;14.60;;;18.50;99.90;;;;;;5093330;28;20052;-87
2023/05/12 11:58:54;;;;;;;19.98;14.82;;;18.50;99.90;;;;;;5091968;28;20043;-85
2023/05/12 12:01:20;;;;;;;20.70;14.50;;;18.40;99.90;;;;;;5093466;28;20076;-85
2023/05/12 12:03:48;;;;;;;22.90;14.65;;;18.40;99.90;;;;;;5093233;28;20060;-85
2023/05/12 12:06:13;;;;;;;20.98;14.55;;;18.60;99.90;;;;;;5093489;28;20054;-86
2023/05/12 12:09:01;;;;;;;24.73;15.10;;;18.40;99.90;;;;;;5126590;28;20048;-85
2023/05/12 12:11:29;;;;;;;17.38;13.80;;;18.50;99.90;;;;;;5093159;28;20458;-86
2023/05/12 12:13:55;;;;;;;16.55;14.35;;;18.40;99.90;;;;;;5093766;28;20044;-85
2023/05/12 12:16:31;;;;;;;16.10;13.95;;;18.50;99.90;;;;;;5095729;28;20048;-85
2023/05/12 12:18:57;;;;;;;15.98;13.57;;;18.40;99.90;;;;;;5096655;28;20407;-86
2023/05/12 12:21:24;;;;;;;19.23;14.40;;;18.40;99.90;;;;;;5097207;28;20080;-87
2023/05/12 12:23:50;;;;;;;17.00;14.50;;;18.70;99.90;;;;;;5097132;28;20564;-87
2023/05/12 12:26:22;;;;;;;14.85;13.20;;;18.80;99.90;;;;;;5095291;28;20399;-87
2023/05/12 12:28:48;;;;;;;18.77;13.95;;;18.90;99.90;;;;;;5097061;28;20055;-82